createdAt,value
2017-11-22T00:02:07.867Z,5.28
2017-11-22T00:04:34.302Z,5.00
2017-11-22T00:07:00.758Z,5.40
2017-11-22T00:09:27.207Z,5.03
2017-11-22T00:11:54.368Z,4.70
2017-11-22T00:14:21.549Z,5.00
2017-11-22T00:16:48.828Z,4.72
2017-11-22T00:19:15.283Z,4.80
2017-11-22T00:21:41.786Z,4.43
2017-11-22T00:24:08.256Z,3.90
2017-11-22T00:26:34.700Z,3.85
2017-11-22T00:29:01.144Z,3.28
2017-11-22T00:31:27.511Z,3.55
2017-11-22T00:33:53.963Z,3.47
2017-11-22T00:36:20.375Z,3.62
2017-11-22T00:38:47.560Z,3.58
2017-11-22T00:41:13.981Z,3.62
2017-11-22T00:43:40.560Z,3.20
2017-11-22T00:46:07.002Z,3.10
2017-11-22T00:48:34.176Z,2.80
2017-11-22T00:51:01.368Z,2.90
2017-11-22T00:53:27.776Z,2.80
2017-11-22T00:55:54.272Z,3.10
2017-11-22T00:58:21.460Z,3.00
2017-11-22T01:00:47.898Z,2.90
2017-11-22T01:03:15.086Z,2.75
2017-11-22T01:05:41.501Z,2.62
2017-11-22T01:08:07.969Z,2.45
2017-11-22T01:10:35.790Z,2.60
2017-11-22T01:13:02.209Z,2.40
2017-11-22T01:15:28.685Z,2.50
2017-11-22T01:17:55.765Z,2.53
2017-11-22T01:20:22.311Z,2.40
2017-11-22T01:22:49.477Z,2.50
2017-11-22T01:25:16.671Z,2.20
2017-11-22T01:27:43.075Z,2.12
2017-11-22T01:30:09.508Z,2.30
2017-11-22T01:32:35.957Z,2.20
2017-11-22T01:35:02.446Z,2.70
2017-11-22T01:37:28.872Z,2.30
2017-11-22T01:39:55.311Z,2.20
2017-11-22T01:42:21.722Z,2.70
2017-11-22T01:44:48.972Z,2.40
2017-11-22T01:47:15.484Z,2.20
2017-11-22T01:49:42.020Z,2.30
2017-11-22T01:52:09.079Z,2.30
2017-11-22T01:54:35.751Z,2.00
2017-11-22T01:57:02.975Z,2.10
2017-11-22T01:59:29.399Z,2.20
2017-11-22T02:01:56.671Z,2.25
2017-11-22T02:04:23.820Z,2.60
2017-11-22T02:06:50.282Z,2.55
2017-11-22T02:09:18.345Z,2.50
2017-11-22T02:11:44.824Z,2.62
2017-11-22T02:14:12.029Z,2.80
2017-11-22T02:16:38.471Z,3.10
2017-11-22T02:19:05.625Z,3.10
2017-11-22T02:21:32.109Z,4.00
2017-11-22T02:23:58.560Z,3.97
2017-11-22T02:26:25.692Z,4.82
2017-11-22T02:28:52.155Z,4.90
2017-11-22T02:31:18.696Z,5.07
2017-11-22T02:33:45.153Z,5.35
2017-11-22T02:36:11.654Z,4.97
2017-11-22T02:38:38.901Z,5.80
2017-11-22T02:41:05.371Z,4.93
2017-11-22T02:43:31.827Z,5.53
2017-11-22T02:45:59.074Z,5.28
2017-11-22T02:48:25.534Z,4.70
2017-11-22T02:50:52.025Z,4.62
2017-11-22T02:53:19.245Z,4.40
2017-11-22T02:55:45.876Z,4.50
2017-11-22T02:58:12.371Z,4.65
2017-11-22T03:00:38.796Z,4.95
2017-11-22T03:03:05.239Z,6.05
2017-11-22T03:05:31.679Z,5.90
2017-11-22T03:07:58.839Z,5.70
2017-11-22T03:10:25.275Z,6.60
2017-11-22T03:12:51.777Z,6.85
2017-11-22T03:15:18.215Z,6.60
2017-11-22T03:17:44.634Z,6.60
2017-11-22T03:20:11.045Z,6.47
2017-11-22T03:22:38.211Z,6.60
2017-11-22T03:25:04.650Z,6.53
2017-11-22T03:27:31.844Z,6.80
2017-11-22T03:29:58.985Z,6.25
2017-11-22T03:32:25.483Z,6.03
2017-11-22T03:34:51.895Z,6.10
2017-11-22T03:37:18.395Z,6.43
2017-11-22T03:39:44.804Z,6.20
2017-11-22T03:42:11.243Z,6.15
2017-11-22T03:44:37.683Z,6.57
2017-11-22T03:47:04.513Z,6.82
2017-11-22T03:49:30.988Z,7.30
2017-11-22T03:52:03.635Z,7.93
2017-11-22T03:54:30.841Z,8.45
2017-11-22T03:56:58.008Z,8.98
2017-11-22T03:59:25.209Z,8.48
2017-11-22T04:01:57.770Z,9.50
2017-11-22T04:04:27.880Z,8.75
2017-11-22T04:06:54.304Z,9.52
2017-11-22T04:09:20.824Z,8.88
2017-11-22T04:11:47.980Z,9.55
2017-11-22T04:14:15.149Z,9.60
2017-11-22T04:16:41.574Z,9.90
2017-11-22T04:19:13.874Z,9.88
2017-11-22T04:21:40.299Z,10.38
2017-11-22T04:24:06.726Z,10.20
2017-11-22T04:26:33.151Z,10.23
2017-11-22T04:29:00.301Z,9.63
2017-11-22T04:31:26.748Z,9.10
2017-11-22T04:33:53.160Z,10.27
2017-11-22T04:36:20.363Z,10.25
2017-11-22T04:38:46.831Z,9.90
2017-11-22T04:41:13.279Z,10.02
2017-11-22T04:43:39.697Z,10.30
2017-11-22T04:46:06.865Z,11.60
2017-11-22T04:48:34.074Z,11.57
2017-11-22T04:51:00.507Z,12.40
2017-11-22T04:53:26.955Z,12.40
2017-11-22T04:55:54.203Z,12.63
2017-11-22T04:58:20.666Z,11.98
2017-11-22T05:00:47.090Z,12.82
2017-11-22T05:03:13.541Z,11.75
2017-11-22T05:05:40.029Z,11.98
2017-11-22T05:08:06.495Z,12.27
2017-11-22T05:10:33.712Z,11.95
2017-11-22T05:13:00.169Z,12.10
2017-11-22T05:15:26.590Z,12.07
2017-11-22T05:17:53.700Z,13.00
2017-11-22T05:20:20.131Z,12.23
2017-11-22T05:22:46.557Z,12.90
2017-11-22T05:25:12.990Z,12.88
2017-11-22T05:27:39.426Z,12.90
2017-11-22T05:30:05.868Z,13.93
2017-11-22T05:32:32.403Z,12.88
2017-11-22T05:34:59.549Z,13.07
2017-11-22T05:37:25.993Z,12.60
2017-11-22T05:39:52.415Z,13.30
2017-11-22T05:42:18.944Z,12.60
2017-11-22T05:44:45.353Z,13.50
2017-11-22T05:47:12.378Z,13.73
2017-11-22T05:49:38.787Z,13.20
2017-11-22T05:52:05.207Z,13.10
2017-11-22T05:54:31.662Z,12.17
2017-11-22T05:56:58.295Z,12.23
2017-11-22T05:59:25.474Z,12.73
2017-11-22T06:01:51.924Z,12.90
2017-11-22T06:04:19.097Z,12.50
2017-11-22T06:06:46.243Z,12.40
2017-11-22T06:09:12.692Z,12.60
2017-11-22T06:11:39.144Z,12.40
2017-11-22T06:14:05.588Z,11.30
2017-11-22T06:16:32.008Z,11.90
2017-11-22T06:18:58.437Z,11.83
2017-11-22T06:21:25.595Z,12.03
2017-11-22T06:23:52.023Z,11.82
2017-11-22T06:26:18.443Z,11.90
2017-11-22T06:28:44.848Z,12.05
2017-11-22T06:31:11.245Z,11.68
2017-11-22T06:33:37.653Z,11.80
2017-11-22T06:36:04.069Z,11.50
2017-11-22T06:38:30.486Z,11.40
2017-11-22T06:40:57.679Z,11.10
2017-11-22T06:43:24.112Z,11.52
2017-11-22T06:45:50.548Z,11.50
2017-11-22T06:48:16.985Z,12.20
2017-11-22T06:50:43.455Z,11.30
2017-11-22T06:53:10.641Z,11.27
2017-11-22T06:55:37.111Z,10.75
2017-11-22T06:58:04.238Z,10.30
2017-11-22T07:00:30.872Z,10.80
2017-11-22T07:03:00.183Z,10.68
2017-11-22T07:05:27.155Z,10.25
2017-11-22T07:07:53.604Z,9.98
2017-11-22T07:10:20.048Z,10.02
2017-11-22T07:12:47.230Z,9.52
2017-11-22T07:15:14.487Z,9.90
2017-11-22T07:17:41.480Z,9.88
2017-11-22T07:20:07.919Z,10.00
2017-11-22T07:22:35.339Z,9.45
2017-11-22T07:25:01.818Z,9.68
2017-11-22T07:27:28.268Z,9.20
2017-11-22T07:29:54.862Z,9.30
2017-11-22T07:32:22.065Z,9.15
2017-11-22T07:34:48.529Z,8.80
2017-11-22T07:37:21.209Z,9.13
2017-11-22T07:39:47.652Z,8.90
2017-11-22T07:42:14.852Z,8.75
2017-11-22T07:44:41.256Z,8.50
2017-11-22T07:47:11.821Z,9.07
2017-11-22T07:49:39.573Z,8.52
2017-11-22T07:52:12.103Z,8.55
2017-11-22T07:54:39.934Z,8.80
2017-11-22T07:57:06.400Z,8.95
2017-11-22T07:59:32.848Z,8.10
2017-11-22T08:01:59.282Z,8.70
2017-11-22T08:04:28.666Z,8.35
2017-11-22T08:06:55.873Z,8.70
2017-11-22T08:09:22.340Z,9.30
2017-11-22T08:11:48.777Z,8.70
2017-11-22T08:14:15.177Z,8.52
2017-11-22T08:16:41.608Z,8.80
2017-11-22T08:19:08.025Z,8.75
2017-11-22T08:21:39.017Z,8.68
2017-11-22T08:24:05.483Z,8.25
2017-11-22T08:26:31.899Z,8.15
2017-11-22T08:28:59.061Z,7.93
2017-11-22T08:31:25.512Z,8.98
2017-11-22T08:33:51.907Z,8.90
2017-11-22T08:36:18.448Z,8.88
2017-11-22T08:38:45.617Z,9.00
2017-11-22T08:41:12.168Z,9.82
2017-11-22T08:43:44.176Z,9.60
2017-11-22T08:46:10.622Z,9.70
2017-11-22T08:48:37.048Z,12.23
2017-11-22T08:51:03.504Z,13.70
2017-11-22T08:53:29.944Z,16.73
2017-11-22T08:56:02.421Z,10.90
2017-11-22T08:58:29.030Z,11.00
2017-11-22T09:00:56.192Z,9.98
2017-11-22T09:03:23.522Z,13.02
2017-11-22T09:05:56.709Z,11.20
2017-11-22T09:08:23.164Z,13.93
2017-11-22T09:10:49.595Z,15.32
2017-11-22T09:13:19.877Z,13.43
2017-11-22T09:15:46.342Z,15.00
2017-11-22T09:18:12.763Z,9.70
2017-11-22T09:33:18.090Z,9.80
2017-11-22T09:35:44.582Z,9.52
2017-11-22T09:38:11.044Z,9.57
2017-11-22T09:40:37.493Z,10.05
2017-11-22T09:43:03.932Z,9.63
2017-11-22T09:45:30.872Z,10.68
2017-11-22T09:47:57.534Z,11.60
2017-11-22T09:50:23.980Z,10.53
2017-11-22T09:52:51.204Z,12.35
2017-11-22T09:55:17.675Z,10.77
2017-11-22T09:57:44.136Z,11.07
2017-11-22T10:00:10.633Z,10.30
2017-11-22T10:02:37.227Z,11.27
2017-11-22T10:05:03.667Z,11.55
2017-11-22T10:07:30.082Z,10.80
2017-11-22T10:09:57.348Z,11.02
2017-11-22T10:12:23.795Z,10.65
2017-11-22T10:14:50.300Z,10.50
2017-11-22T10:17:16.805Z,10.70
2017-11-22T10:19:43.321Z,11.50
2017-11-22T10:22:10.759Z,14.05
2017-11-22T10:24:43.269Z,14.75
2017-11-22T10:27:16.620Z,16.58
2017-11-22T10:29:46.150Z,19.00
2017-11-22T10:32:18.893Z,14.93
2017-11-22T10:34:48.654Z,23.42
2017-11-22T10:37:15.520Z,14.02
2017-11-22T10:39:42.157Z,13.18
2017-11-22T10:42:08.791Z,13.00
2017-11-22T10:44:36.296Z,12.10
2017-11-22T10:47:03.572Z,13.27
2017-11-22T10:49:30.958Z,17.42
2017-11-22T10:51:57.546Z,13.00
2017-11-22T10:54:25.496Z,12.20
2017-11-22T10:56:52.076Z,15.60
2017-11-22T10:59:18.717Z,12.35
2017-11-22T11:01:46.015Z,12.87
2017-11-22T11:04:12.761Z,36.70
2017-11-22T11:06:39.248Z,17.80
2017-11-22T11:09:05.697Z,15.40
2017-11-22T11:11:32.224Z,13.40
2017-11-22T11:13:59.809Z,12.27
2017-11-22T11:16:27.080Z,42.80
2017-11-22T11:18:54.253Z,79.25
2017-11-22T11:21:21.527Z,56.13
2017-11-22T11:23:48.203Z,45.75
2017-11-22T11:26:14.650Z,15.77
2017-11-22T11:28:41.106Z,13.80
2017-11-22T11:31:07.765Z,18.12
2017-11-22T11:33:34.424Z,18.40
2017-11-22T11:36:23.906Z,35.85
2017-11-22T11:38:50.756Z,23.65
2017-11-22T11:41:17.300Z,28.65
2017-11-22T11:43:44.522Z,21.40
2017-11-22T11:46:11.003Z,69.07
2017-11-22T11:48:37.807Z,21.33
2017-11-22T11:51:04.775Z,11.55
2017-11-22T11:53:31.266Z,10.60
2017-11-22T11:55:57.892Z,10.20
2017-11-22T11:58:24.655Z,11.05
2017-11-22T12:00:51.933Z,10.30
2017-11-22T12:03:18.898Z,11.30
2017-11-22T12:05:46.171Z,10.13
2017-11-22T12:08:13.755Z,10.60
2017-11-22T12:10:40.724Z,36.45
2017-11-22T12:13:07.409Z,28.30
2017-11-22T12:15:35.915Z,16.17
2017-11-22T12:18:04.588Z,50.10
2017-11-22T12:20:32.374Z,51.80
2017-11-22T12:23:05.889Z,16.55
2017-11-22T12:25:34.976Z,11.88
2017-11-22T12:28:02.791Z,12.60
2017-11-22T12:30:32.102Z,13.13
2017-11-22T12:32:59.449Z,19.70
2017-11-22T12:35:26.870Z,16.12
2017-11-22T12:37:53.731Z,13.20
2017-11-22T12:40:20.804Z,23.05
2017-11-22T12:42:48.074Z,13.75
2017-11-22T12:45:15.551Z,20.60
2017-11-22T12:47:42.065Z,18.90
2017-11-22T12:50:08.595Z,13.40
2017-11-22T12:52:35.350Z,11.65
2017-11-22T12:55:01.891Z,12.05
2017-11-22T12:57:28.364Z,14.20
2017-11-22T12:59:54.825Z,12.27
2017-11-22T13:02:21.563Z,11.82
2017-11-22T13:04:49.143Z,12.80
2017-11-22T13:07:16.525Z,12.65
2017-11-22T13:09:43.026Z,11.82
2017-11-22T13:12:09.543Z,10.90
2017-11-22T13:14:36.126Z,11.23
2017-11-22T13:17:02.667Z,11.68
2017-11-22T13:19:29.223Z,10.10
2017-11-22T13:21:55.772Z,8.90
2017-11-22T13:24:22.336Z,9.13
2017-11-22T13:26:48.841Z,8.30
2017-11-22T13:29:15.448Z,8.50
2017-11-22T13:31:42.105Z,8.40
2017-11-22T13:34:10.065Z,8.25
2017-11-22T13:36:37.362Z,9.10
2017-11-22T13:39:04.656Z,9.63
2017-11-22T13:41:31.180Z,9.70
2017-11-22T13:43:58.455Z,9.07
2017-11-22T13:46:25.036Z,8.43
2017-11-22T13:48:51.802Z,8.00
2017-11-22T13:51:18.416Z,6.90
2017-11-22T13:53:45.118Z,7.20
2017-11-22T13:56:12.392Z,7.80
2017-11-22T13:58:39.655Z,7.60
2017-11-22T14:01:07.155Z,8.68
2017-11-22T14:03:34.934Z,8.50
2017-11-22T14:06:01.594Z,8.70
2017-11-22T14:08:28.189Z,8.93
2017-11-22T14:10:55.636Z,8.75
2017-11-22T14:13:22.294Z,11.80
2017-11-22T14:15:49.641Z,8.98
2017-11-22T14:18:17.264Z,8.00
2017-11-22T14:20:43.911Z,7.60
2017-11-22T14:23:11.368Z,10.75
2017-11-22T14:25:38.610Z,11.50
2017-11-22T14:28:05.430Z,12.02
2017-11-22T14:30:32.666Z,12.00
2017-11-22T14:32:59.265Z,14.40
2017-11-22T14:35:25.776Z,17.40
2017-11-22T14:37:52.378Z,16.90
2017-11-22T14:40:19.752Z,12.97
2017-11-22T14:42:47.130Z,12.95
2017-11-22T14:45:14.414Z,13.82
2017-11-22T14:47:40.972Z,12.93
2017-11-22T14:50:07.520Z,12.70
2017-11-22T14:52:34.023Z,13.45
2017-11-22T14:55:00.631Z,13.50
2017-11-22T14:57:28.321Z,12.27
2017-11-22T14:59:54.942Z,11.63
2017-11-22T15:02:21.530Z,12.07
2017-11-22T15:04:48.869Z,13.07
2017-11-22T15:07:15.417Z,15.00
2017-11-22T15:09:42.205Z,21.60
2017-11-22T15:12:08.860Z,24.98
2017-11-22T15:14:35.562Z,17.30
2017-11-22T15:17:02.224Z,13.27
2017-11-22T15:19:28.775Z,10.85
2017-11-22T15:21:56.097Z,12.55
2017-11-22T15:24:22.627Z,12.02
2017-11-22T15:26:49.325Z,13.98
2017-11-22T15:29:15.828Z,14.25
2017-11-22T15:31:43.207Z,17.92
2017-11-22T15:34:10.434Z,15.70
2017-11-22T15:36:37.094Z,17.30
2017-11-22T15:39:03.631Z,17.00
2017-11-22T15:41:30.468Z,17.25
2017-11-22T15:43:56.980Z,16.50
2017-11-22T15:46:23.452Z,14.27
2017-11-22T15:48:50.674Z,16.10
2017-11-22T15:51:17.164Z,13.00
2017-11-22T15:53:43.682Z,14.30
2017-11-22T15:56:10.328Z,12.35
2017-11-22T15:58:37.415Z,11.00
2017-11-22T16:01:04.064Z,10.30
2017-11-22T16:03:30.836Z,11.63
2017-11-22T16:05:59.666Z,9.18
2017-11-22T16:08:26.286Z,9.77
2017-11-22T16:10:54.591Z,11.18
2017-11-22T16:13:21.863Z,11.70
2017-11-22T16:15:49.455Z,15.50
2017-11-22T16:18:16.620Z,13.50
2017-11-22T16:20:47.384Z,12.45
2017-11-22T16:23:13.988Z,13.50
2017-11-22T16:25:41.210Z,13.65
2017-11-22T16:28:07.969Z,13.02
2017-11-22T16:30:35.508Z,13.03
2017-11-22T16:33:02.107Z,12.80
2017-11-22T16:35:29.585Z,12.37
2017-11-22T16:37:57.573Z,11.77
2017-11-22T16:40:24.545Z,11.70
2017-11-22T16:42:51.828Z,11.05
2017-11-22T16:45:19.704Z,9.20
2017-11-22T16:47:46.365Z,9.63
2017-11-22T16:50:13.436Z,10.75
2017-11-22T16:52:40.814Z,15.60
2017-11-22T16:55:08.610Z,36.22
2017-11-22T16:57:36.903Z,57.85
2017-11-22T17:00:04.165Z,15.43
2017-11-22T17:02:32.943Z,34.15
2017-11-22T17:05:00.868Z,27.70
2017-11-22T17:07:28.348Z,19.50
2017-11-22T17:09:55.413Z,13.35
2017-11-22T17:12:22.790Z,11.00
2017-11-22T17:14:49.563Z,7.40
2017-11-22T17:17:17.460Z,8.73
2017-11-22T17:19:44.718Z,7.68
2017-11-22T17:22:11.992Z,7.78
2017-11-22T17:24:38.754Z,6.93
2017-11-22T17:27:06.543Z,9.50
2017-11-22T17:29:34.533Z,7.70
2017-11-22T17:32:01.396Z,22.70
2017-11-22T17:34:28.896Z,10.30
2017-11-22T17:36:56.045Z,9.52
2017-11-22T17:39:24.315Z,13.75
2017-11-22T17:41:53.016Z,11.32
2017-11-22T17:44:20.435Z,10.02
2017-11-22T17:46:47.048Z,11.98
2017-11-22T17:49:13.858Z,9.40
2017-11-22T17:51:40.619Z,9.65
2017-11-22T17:54:07.353Z,10.65
2017-11-22T17:56:35.244Z,7.72
2017-11-22T17:59:02.541Z,6.60
2017-11-22T18:01:29.271Z,18.30
2017-11-22T18:03:56.681Z,16.05
2017-11-22T18:06:23.748Z,9.45
2017-11-22T18:08:50.717Z,10.32
2017-11-22T18:11:17.586Z,6.90
2017-11-22T18:13:45.376Z,5.47
2017-11-22T18:16:12.746Z,5.03
2017-11-22T18:18:39.946Z,5.75
2017-11-22T18:21:06.797Z,5.82
2017-11-22T18:23:33.855Z,5.00
2017-11-22T18:26:00.921Z,7.32
2017-11-22T18:28:28.460Z,5.65
2017-11-22T18:30:55.165Z,5.20
2017-11-22T18:33:22.027Z,3.60
2017-11-22T18:35:50.426Z,3.97
2017-11-22T18:38:18.456Z,3.58
2017-11-22T18:40:46.815Z,3.92
2017-11-22T18:43:15.739Z,3.30
2017-11-22T18:45:44.143Z,6.60
2017-11-22T18:48:13.633Z,5.10
2017-11-22T18:50:41.028Z,5.35
2017-11-22T18:53:09.333Z,5.50
2017-11-22T18:55:36.293Z,4.82
2017-11-22T18:58:04.207Z,5.20
2017-11-22T19:00:31.557Z,5.00
2017-11-22T19:02:58.932Z,5.20
2017-11-22T19:05:27.133Z,5.00
2017-11-22T19:07:55.230Z,5.07
2017-11-22T19:10:23.014Z,4.50
2017-11-22T19:12:51.105Z,4.75
2017-11-22T19:15:18.960Z,4.20
2017-11-22T19:17:46.776Z,4.72
2017-11-22T19:20:15.592Z,4.47
2017-11-22T19:22:43.576Z,4.70
2017-11-22T19:25:11.662Z,4.13
2017-11-22T19:27:39.553Z,4.47
2017-11-22T19:30:08.463Z,4.50
2017-11-22T19:32:37.626Z,7.53
2017-11-22T19:41:52.847Z,4.22
2017-11-22T19:44:22.195Z,4.35
2017-11-22T19:46:51.317Z,4.40
2017-11-22T19:49:19.254Z,4.37
2017-11-22T19:51:47.653Z,4.80
2017-11-22T19:54:15.396Z,4.70
2017-11-22T19:56:43.018Z,3.92
2017-11-22T19:59:10.913Z,4.10
2017-11-22T20:01:38.694Z,4.43
2017-11-22T20:04:07.257Z,4.40
2017-11-22T20:06:36.716Z,4.22
2017-11-22T20:09:04.489Z,3.90
2017-11-22T20:11:31.878Z,3.87
2017-11-22T20:14:00.176Z,3.90
2017-11-22T20:16:27.863Z,3.20
2017-11-22T20:18:55.442Z,3.70
2017-11-22T20:21:23.535Z,3.60
2017-11-22T20:23:51.726Z,3.40
2017-11-22T20:26:20.437Z,3.83
2017-11-22T20:28:48.174Z,3.60
2017-11-22T20:31:16.979Z,3.20
2017-11-22T20:33:43.688Z,3.47
2017-11-22T20:36:11.575Z,3.37
2017-11-22T20:38:39.566Z,3.00
2017-11-22T20:41:07.354Z,3.53
2017-11-22T20:43:36.043Z,3.45
2017-11-22T20:46:02.925Z,3.97
2017-11-22T20:48:29.890Z,3.60
2017-11-22T20:50:57.781Z,3.50
2017-11-22T20:53:24.276Z,3.40
2017-11-22T20:55:52.024Z,3.80
2017-11-22T20:58:19.296Z,3.60
2017-11-22T21:00:46.878Z,3.70
2017-11-22T21:03:14.359Z,4.83
2017-11-22T21:05:41.326Z,6.53
2017-11-22T21:08:08.796Z,13.27
2017-11-22T21:10:35.670Z,9.55
2017-11-22T21:13:02.739Z,9.70
2017-11-22T21:15:29.911Z,8.43
2017-11-22T21:17:57.666Z,11.57
2017-11-22T21:20:26.349Z,10.55
2017-11-22T21:22:54.532Z,7.07
2017-11-22T21:25:21.499Z,9.38
2017-11-22T21:27:48.126Z,9.48
2017-11-22T21:30:15.399Z,10.30
2017-11-22T21:32:42.573Z,8.65
2017-11-22T21:35:09.338Z,11.70
2017-11-22T21:37:35.806Z,9.43
2017-11-22T21:40:02.367Z,7.78
2017-11-22T21:42:29.149Z,11.10
2017-11-22T21:44:55.619Z,12.63
2017-11-22T21:47:22.228Z,12.55
2017-11-22T21:49:48.758Z,11.05
2017-11-22T21:52:15.346Z,12.00
2017-11-22T21:54:42.685Z,9.48
2017-11-22T21:57:09.285Z,7.10
2017-11-22T21:59:35.814Z,9.15
2017-11-22T22:02:03.984Z,10.45
2017-11-22T22:04:30.491Z,13.60
2017-11-22T22:06:57.152Z,12.98
2017-11-22T22:09:23.603Z,9.10
2017-11-22T22:11:51.293Z,7.97
2017-11-22T22:14:17.938Z,5.10
2017-11-22T22:16:45.135Z,4.50
2017-11-22T22:19:11.559Z,4.25
2017-11-22T22:21:38.853Z,4.25
2017-11-22T22:24:06.107Z,4.37
2017-11-22T22:26:32.602Z,5.45
2017-11-22T22:28:59.102Z,6.90
2017-11-22T22:31:25.599Z,5.20
2017-11-22T22:33:52.111Z,14.10
2017-11-22T22:36:18.585Z,7.05
2017-11-22T22:38:45.037Z,4.55
2017-11-22T22:41:11.494Z,4.55
2017-11-22T22:43:38.124Z,5.18
2017-11-22T22:46:04.608Z,4.12
2017-11-22T22:48:31.082Z,4.30
2017-11-22T22:50:58.330Z,3.80
2017-11-22T22:53:25.347Z,3.25
2017-11-22T22:55:51.818Z,2.70
2017-11-22T22:58:18.280Z,3.00
2017-11-22T23:00:44.743Z,2.42
2017-11-22T23:03:12.205Z,2.20
2017-11-22T23:05:38.746Z,1.87
2017-11-22T23:08:05.256Z,2.20
2017-11-22T23:10:31.760Z,2.20
2017-11-22T23:12:58.919Z,2.12
2017-11-22T23:15:25.675Z,2.10
2017-11-22T23:17:53.274Z,2.20
2017-11-22T23:20:19.723Z,2.12
2017-11-22T23:22:47.295Z,2.10
2017-11-22T23:25:14.235Z,2.42
2017-11-22T23:27:40.840Z,2.60
2017-11-22T23:30:07.449Z,3.80
2017-11-22T23:32:34.698Z,3.35
2017-11-22T23:35:01.188Z,3.05
2017-11-22T23:37:27.712Z,3.50
2017-11-22T23:39:54.188Z,3.92
2017-11-22T23:42:21.500Z,3.50
2017-11-22T23:44:48.795Z,3.05
2017-11-22T23:47:15.461Z,3.12
2017-11-22T23:49:42.877Z,2.70
2017-11-22T23:52:09.320Z,2.45
2017-11-22T23:54:36.192Z,2.10
2017-11-22T23:57:02.828Z,2.30
2017-11-22T23:59:30.235Z,2.60
